createdAt,value
2019-04-01T00:01:03.497Z,67.16
2019-04-01T00:03:35.022Z,67.81
2019-04-01T00:06:06.465Z,68.08
2019-04-01T00:08:39.266Z,68.35
2019-04-01T00:11:10.596Z,70.81
2019-04-01T00:13:43.270Z,70.95
2019-04-01T00:16:15.951Z,72.23
2019-04-01T00:19:02.066Z,73.25
2019-04-01T00:21:22.531Z,71.93
2019-04-01T00:23:55.224Z,72.18
2019-04-01T00:26:27.901Z,72.15
2019-04-01T00:28:59.369Z,72.33
2019-04-01T00:31:32.872Z,72.52
2019-04-01T00:34:04.405Z,73.07
2019-04-01T00:36:35.852Z,73.04
2019-04-01T00:39:08.535Z,73.02
2019-04-01T00:41:42.858Z,72.66
2019-04-01T00:44:14.215Z,72.56
2019-04-01T00:46:46.877Z,72.04
2019-04-01T00:49:19.577Z,72.24
2019-04-01T00:51:52.234Z,72.45
2019-04-01T00:54:26.764Z,72.30
2019-04-01T00:56:58.210Z,73.87
2019-04-01T00:59:31.833Z,74.40
2019-04-01T01:02:03.268Z,74.20
2019-04-01T01:04:34.792Z,74.35
2019-04-01T01:07:07.571Z,74.37
2019-04-01T01:09:39.813Z,75.11
2019-04-01T01:12:11.235Z,74.57
2019-04-01T01:14:42.840Z,76.16
2019-04-01T01:17:16.278Z,76.21
2019-04-01T01:19:47.754Z,76.32
2019-04-01T01:22:19.189Z,76.22
2019-04-01T01:24:50.647Z,75.73
2019-04-01T01:27:22.081Z,75.43
2019-04-01T01:29:54.777Z,75.93
2019-04-01T01:32:26.208Z,77.24
2019-04-01T01:34:57.693Z,76.63
2019-04-01T01:37:29.286Z,76.84
2019-04-01T01:40:01.794Z,76.53
2019-04-01T01:42:34.783Z,76.40
2019-04-01T01:45:07.942Z,77.77
2019-04-01T01:47:40.455Z,77.66
2019-04-01T01:50:12.829Z,77.35
2019-04-01T01:52:44.357Z,77.71
2019-04-01T01:55:18.213Z,77.87
2019-04-01T01:57:49.627Z,77.85
2019-04-01T02:00:23.584Z,77.60
2019-04-01T02:02:54.995Z,77.25
2019-04-01T02:05:26.442Z,77.24
2019-04-01T02:07:59.135Z,77.01
2019-04-01T02:10:30.568Z,77.06
2019-04-01T02:13:03.273Z,76.80
2019-04-01T02:15:35.624Z,76.74
2019-04-01T02:18:08.328Z,76.79
2019-04-01T02:20:41.917Z,76.55
2019-04-01T02:23:14.597Z,76.45
2019-04-01T02:25:47.273Z,76.43
2019-04-01T02:28:19.959Z,76.40
2019-04-01T02:30:51.399Z,76.56
2019-04-01T02:33:24.405Z,76.54
2019-04-01T02:35:57.989Z,76.54
2019-04-01T02:38:29.460Z,76.55
2019-04-01T02:41:00.921Z,76.29
2019-04-01T02:43:33.572Z,76.06
2019-04-01T02:46:05.100Z,76.45
2019-04-01T02:48:37.715Z,76.04
2019-04-01T02:51:10.689Z,76.29
2019-04-01T02:53:43.373Z,76.33
2019-04-01T02:56:16.049Z,76.74
2019-04-01T02:58:48.750Z,76.50
2019-04-01T03:01:21.111Z,76.72
2019-04-01T03:03:53.790Z,76.92
2019-04-01T03:06:25.241Z,76.75
2019-04-01T03:08:58.073Z,76.99
2019-04-01T03:11:31.340Z,76.74
2019-04-01T03:14:04.059Z,76.85
2019-04-01T03:16:36.582Z,76.73
2019-04-01T03:19:08.194Z,76.63
2019-04-01T03:21:40.703Z,76.59
2019-04-01T03:24:13.381Z,76.31
2019-04-01T03:26:46.985Z,76.17
2019-04-01T03:29:18.432Z,76.41
2019-04-01T03:31:49.891Z,75.96
2019-04-01T03:34:21.832Z,76.11
2019-04-01T03:36:57.084Z,76.08
2019-04-01T03:39:29.773Z,76.10
2019-04-01T03:42:03.996Z,76.29
2019-04-01T03:44:36.665Z,76.28
2019-04-01T03:47:08.423Z,76.75
2019-04-01T03:49:41.118Z,76.81
2019-04-01T03:52:12.565Z,76.63
2019-04-01T03:54:45.245Z,77.50
2019-04-01T03:57:17.919Z,77.75
2019-04-01T03:59:49.383Z,77.66
2019-04-01T04:02:20.823Z,77.59
2019-04-01T04:04:53.517Z,77.68
2019-04-01T04:07:26.494Z,77.87
2019-04-01T04:09:59.168Z,78.55
2019-04-01T04:12:31.854Z,78.71
2019-04-01T04:15:04.302Z,78.03
2019-04-01T04:17:35.666Z,78.50
2019-04-01T04:20:07.208Z,78.79
2019-04-01T04:22:39.808Z,77.95
2019-04-01T04:25:12.482Z,78.33
2019-04-01T04:27:46.083Z,79.13
2019-04-01T04:30:19.833Z,78.74
2019-04-01T04:32:51.164Z,78.92
2019-04-01T04:35:23.511Z,79.47
2019-04-01T04:37:54.961Z,78.94
2019-04-01T04:40:27.641Z,79.38
2019-04-01T04:43:00.320Z,79.54
2019-04-01T04:45:32.725Z,79.57
2019-04-01T04:48:06.600Z,78.34
2019-04-01T04:50:38.060Z,79.26
2019-04-01T04:53:11.978Z,78.60
2019-04-01T04:55:43.414Z,78.76
2019-04-01T04:58:17.561Z,77.85
2019-04-01T05:00:49.094Z,77.81
2019-04-01T05:03:21.450Z,76.90
2019-04-01T05:05:53.357Z,77.00
2019-04-01T05:08:24.679Z,77.46
2019-04-01T05:10:58.887Z,76.39
2019-04-01T05:13:31.580Z,76.00
2019-04-01T05:16:03.332Z,76.95
2019-04-01T05:18:35.109Z,76.65
2019-04-01T05:21:06.552Z,75.98
2019-04-01T05:23:37.995Z,75.28
2019-04-01T05:26:09.921Z,75.23
2019-04-01T05:28:42.454Z,75.60
2019-04-01T05:31:14.715Z,74.48
2019-04-01T05:33:55.334Z,71.14
2019-04-01T05:36:20.456Z,58.16
2019-04-01T05:38:54.983Z,50.85
2019-04-01T05:41:26.471Z,45.35
2019-04-01T05:44:02.127Z,41.23
2019-04-01T05:46:33.041Z,40.21
2019-04-01T05:49:04.478Z,37.72
2019-04-01T05:51:35.929Z,37.58
2019-04-01T05:54:08.365Z,36.73
2019-04-01T05:56:41.052Z,34.14
2019-04-01T05:59:12.440Z,33.40
2019-04-01T06:01:46.757Z,34.20
2019-04-01T06:04:18.117Z,32.31
2019-04-01T06:06:49.551Z,31.47
2019-04-01T06:09:21.095Z,30.89
2019-04-01T06:11:53.697Z,29.27
2019-04-01T06:14:25.034Z,29.63
2019-04-01T06:16:56.361Z,28.99
2019-04-01T06:19:29.024Z,28.78
2019-04-01T06:22:00.451Z,28.01
2019-04-01T06:24:31.893Z,27.83
2019-04-01T06:27:03.313Z,27.45
2019-04-01T06:29:34.862Z,27.71
2019-04-01T06:32:06.222Z,26.68
2019-04-01T06:34:51.927Z,27.13
2019-04-01T06:37:11.913Z,27.26
2019-04-01T06:39:43.355Z,26.55
2019-04-01T06:42:14.793Z,27.38
2019-04-01T06:44:46.275Z,26.76
2019-04-01T06:47:17.680Z,27.58
2019-04-01T06:49:51.329Z,28.66
2019-04-01T06:52:23.960Z,27.33
2019-04-01T06:54:56.673Z,28.56
2019-04-01T06:57:29.023Z,30.42
2019-04-01T07:00:02.652Z,30.38
2019-04-01T07:02:34.080Z,29.54
2019-04-01T07:05:06.873Z,30.40
2019-04-01T07:07:38.217Z,30.80
2019-04-01T07:10:09.688Z,30.38
2019-04-01T07:12:41.124Z,30.59
2019-04-01T07:15:12.606Z,30.98
2019-04-01T07:17:44.033Z,30.84
2019-04-01T07:20:15.482Z,31.06
2019-04-01T07:22:48.554Z,31.13
2019-04-01T07:25:21.230Z,32.10
2019-04-01T07:27:52.575Z,32.68
2019-04-01T07:30:24.072Z,32.27
2019-04-01T07:32:55.509Z,31.85
2019-04-01T07:35:26.953Z,32.27
2019-04-01T07:37:58.398Z,33.11
2019-04-01T07:40:29.897Z,33.46
2019-04-01T07:43:01.623Z,32.67
2019-04-01T07:45:39.011Z,32.46
2019-04-01T07:48:12.813Z,31.22
2019-04-01T07:50:44.994Z,32.35
2019-04-01T07:53:17.542Z,32.43
2019-04-01T07:55:50.242Z,32.36
2019-04-01T07:58:21.678Z,33.90
2019-04-01T08:00:53.148Z,32.97
2019-04-01T08:03:29.478Z,33.01
2019-04-01T08:06:03.434Z,33.23
2019-04-01T08:08:34.865Z,33.12
2019-04-01T08:11:06.197Z,34.52
2019-04-01T08:13:39.054Z,34.15
2019-04-01T08:16:10.440Z,33.85
2019-04-01T08:18:43.130Z,34.50
2019-04-01T08:21:15.490Z,33.91
2019-04-01T08:23:46.949Z,33.08
2019-04-01T08:26:18.491Z,32.02
2019-04-01T08:28:51.139Z,33.38
2019-04-01T08:31:22.552Z,31.74
2019-04-01T08:33:54.062Z,33.99
2019-04-01T08:36:26.720Z,31.96
2019-04-01T08:38:59.374Z,28.67
2019-04-01T08:41:31.220Z,32.60
2019-04-01T08:44:03.376Z,31.94
2019-04-01T08:46:35.573Z,33.51
2019-04-01T08:49:08.037Z,30.02
2019-04-01T08:51:41.269Z,32.34
2019-04-01T08:54:13.628Z,34.00
2019-04-01T08:56:46.855Z,33.36
2019-04-01T08:59:19.868Z,30.00
2019-04-01T09:01:55.074Z,28.88
2019-04-01T09:04:28.208Z,28.38
2019-04-01T09:07:01.377Z,27.81
2019-04-01T09:09:32.991Z,27.86
2019-04-01T09:12:04.880Z,27.77
2019-04-01T09:14:37.610Z,27.43
2019-04-01T09:17:09.053Z,26.45
2019-04-01T09:19:45.094Z,26.67
2019-04-01T09:22:16.583Z,26.98
2019-04-01T09:24:48.028Z,27.06
2019-04-01T09:27:19.786Z,27.44
2019-04-01T09:29:51.397Z,27.14
2019-04-01T09:32:24.076Z,26.59
2019-04-01T09:34:57.679Z,27.39
2019-04-01T09:37:33.693Z,26.14
2019-04-01T09:40:07.972Z,26.42
2019-04-01T09:42:41.645Z,26.38
2019-04-01T09:45:15.164Z,27.28
2019-04-01T09:47:48.414Z,26.65
2019-04-01T09:50:20.035Z,26.47
2019-04-01T09:52:54.356Z,26.02
2019-04-01T09:55:25.891Z,26.44
2019-04-01T09:57:58.228Z,25.87
2019-04-01T10:00:33.077Z,26.02
2019-04-01T10:03:05.759Z,25.80
2019-04-01T10:05:38.754Z,25.98
2019-04-01T10:08:11.441Z,25.46
2019-04-01T10:10:46.540Z,27.18
2019-04-01T10:13:19.259Z,25.87
2019-04-01T10:15:50.707Z,26.11
2019-04-01T10:18:22.185Z,26.72
2019-04-01T10:20:56.059Z,25.53
2019-04-01T10:23:27.629Z,25.33
2019-04-01T10:25:59.015Z,25.96
2019-04-01T10:28:32.118Z,26.67
2019-04-01T10:31:05.403Z,26.34
2019-04-01T10:33:38.050Z,26.20
2019-04-01T10:36:10.908Z,26.07
2019-04-01T10:38:42.558Z,24.27
2019-04-01T10:41:14.140Z,24.64
2019-04-01T10:43:46.672Z,25.24
2019-04-01T10:46:20.015Z,25.61
2019-04-01T10:48:51.568Z,26.10
2019-04-01T10:51:25.156Z,26.25
2019-04-01T10:54:00.650Z,25.47
2019-04-01T10:56:35.676Z,25.74
2019-04-01T10:59:06.281Z,25.50
2019-04-01T11:01:38.962Z,25.02
2019-04-01T11:04:17.288Z,25.08
2019-04-01T11:06:48.646Z,26.11
2019-04-01T11:09:37.409Z,25.82
2019-04-01T11:11:56.232Z,26.10
2019-04-01T11:14:27.569Z,25.71
2019-04-01T11:17:17.514Z,26.62
2019-04-01T11:19:48.961Z,26.66
2019-04-01T11:22:20.372Z,26.91
2019-04-01T11:24:51.807Z,26.99
2019-04-01T11:27:23.717Z,27.17
2019-04-01T11:29:56.246Z,27.81
2019-04-01T11:32:28.977Z,27.68
2019-04-01T11:35:01.658Z,26.56
2019-04-01T11:37:34.316Z,26.12
2019-04-01T11:40:11.359Z,27.03
2019-04-01T11:42:42.158Z,27.27
2019-04-01T11:45:16.524Z,27.16
2019-04-01T11:47:48.127Z,27.35
2019-04-01T11:50:19.562Z,26.25
2019-04-01T11:52:51.955Z,26.70
2019-04-01T11:55:23.797Z,27.12
2019-04-01T11:57:56.343Z,26.14
2019-04-01T12:00:28.718Z,26.94
2019-04-01T12:03:02.686Z,27.43
2019-04-01T12:05:38.491Z,27.09
2019-04-01T12:08:09.850Z,26.40
2019-04-01T12:10:41.315Z,27.06
2019-04-01T12:13:19.762Z,27.15
2019-04-01T12:15:51.297Z,26.86
2019-04-01T12:18:26.430Z,27.37
2019-04-01T12:21:01.219Z,26.90
2019-04-01T12:23:32.690Z,25.89
2019-04-01T12:26:15.151Z,26.53
2019-04-01T12:28:38.643Z,27.32
2019-04-01T12:31:15.755Z,27.49
2019-04-01T12:33:54.163Z,28.06
2019-04-01T12:36:25.602Z,27.89
2019-04-01T12:39:01.633Z,27.10
2019-04-01T12:41:36.941Z,27.11
2019-04-01T12:44:11.255Z,27.62
2019-04-01T12:46:43.381Z,27.89
2019-04-01T12:49:14.906Z,27.86
2019-04-01T12:51:59.406Z,27.95
2019-04-01T12:54:32.106Z,27.96
2019-04-01T12:57:11.439Z,28.30
2019-04-01T12:59:45.809Z,28.62
2019-04-01T13:02:22.077Z,27.92
2019-04-01T13:04:56.489Z,28.04
2019-04-01T13:07:33.557Z,27.52
2019-04-01T13:10:07.756Z,27.38
2019-04-01T13:12:39.699Z,27.33
2019-04-01T13:15:12.598Z,27.18
2019-04-01T13:17:45.647Z,26.58
2019-04-01T13:20:17.100Z,27.37
2019-04-01T13:22:49.250Z,27.06
2019-04-01T13:25:27.261Z,27.56
2019-04-01T13:28:02.866Z,27.13
2019-04-01T13:30:34.288Z,27.80
2019-04-01T13:33:05.730Z,27.23
2019-04-01T13:35:40.016Z,26.78
2019-04-01T13:38:12.919Z,26.94
2019-04-01T13:40:47.836Z,27.20
2019-04-01T13:43:20.444Z,27.02
2019-04-01T13:45:54.663Z,25.78
2019-04-01T13:48:27.338Z,25.90
2019-04-01T13:51:01.605Z,26.26
2019-04-01T13:53:32.995Z,26.25
2019-04-01T13:56:06.005Z,26.44
2019-04-01T13:58:39.309Z,26.34
2019-04-01T14:01:14.052Z,25.88
2019-04-01T14:03:45.583Z,26.75
2019-04-01T14:06:17.323Z,27.62
2019-04-01T14:08:51.159Z,28.13
2019-04-01T14:11:25.760Z,27.19
2019-04-01T14:14:01.950Z,27.03
2019-04-01T14:16:36.354Z,27.07
2019-04-01T14:19:07.802Z,27.04
2019-04-01T14:21:39.239Z,26.57
2019-04-01T14:24:14.184Z,26.80
2019-04-01T14:26:50.098Z,26.85
2019-04-01T14:29:21.594Z,27.22
2019-04-01T14:31:53.025Z,27.30
2019-04-01T14:34:30.174Z,27.77
2019-04-01T14:37:12.358Z,27.29
2019-04-01T14:39:49.092Z,27.14
2019-04-01T14:42:22.481Z,27.24
2019-04-01T14:44:58.922Z,27.20
2019-04-01T14:47:49.960Z,27.78
2019-04-01T14:50:10.996Z,28.26
2019-04-01T14:52:43.395Z,28.31
2019-04-01T14:55:15.728Z,28.32
2019-04-01T14:57:54.804Z,27.76
2019-04-01T15:00:20.805Z,28.28
2019-04-01T15:02:52.231Z,28.47
2019-04-01T15:05:23.685Z,28.72
2019-04-01T15:07:56.368Z,28.81
2019-04-01T15:10:28.728Z,29.00
2019-04-01T15:13:05.744Z,29.02
2019-04-01T15:15:43.893Z,28.53
2019-04-01T15:18:22.063Z,28.62
2019-04-01T15:21:06.263Z,28.51
2019-04-01T15:23:54.153Z,28.39
2019-04-01T15:26:43.695Z,29.09
2019-04-01T15:29:15.256Z,29.06
2019-04-01T15:31:46.699Z,29.40
2019-04-01T15:34:18.621Z,29.27
2019-04-01T15:36:50.830Z,29.57
2019-04-01T15:39:23.503Z,29.02
2019-04-01T15:41:56.221Z,29.24
2019-04-01T15:44:29.321Z,29.59
2019-04-01T15:47:04.494Z,29.55
2019-04-01T15:49:36.391Z,29.02
2019-04-01T15:52:07.837Z,29.42
2019-04-01T15:54:39.303Z,29.79
2019-04-01T15:57:15.073Z,30.07
2019-04-01T15:59:45.860Z,30.54
2019-04-01T16:02:17.619Z,30.42
2019-04-01T16:04:50.722Z,30.16
2019-04-01T16:07:22.577Z,30.39
2019-04-01T16:09:59.649Z,30.55
2019-04-01T16:12:32.640Z,30.50
2019-04-01T16:15:09.056Z,30.59
2019-04-01T16:17:42.287Z,30.97
2019-04-01T16:20:14.223Z,30.66
2019-04-01T16:22:46.743Z,30.92
2019-04-01T16:25:18.219Z,31.32
2019-04-01T16:27:50.880Z,30.94
2019-04-01T16:30:23.562Z,31.34
2019-04-01T16:32:56.241Z,31.72
2019-04-01T16:35:27.789Z,32.41
2019-04-01T16:38:00.692Z,32.74
2019-04-01T16:40:33.358Z,32.75
2019-04-01T16:43:06.065Z,32.65
2019-04-01T16:45:39.074Z,32.45
2019-04-01T16:48:10.869Z,32.30
2019-04-01T16:50:43.935Z,32.67
2019-04-01T16:53:17.511Z,32.35
2019-04-01T16:55:48.831Z,32.22
2019-04-01T16:58:21.673Z,32.57
2019-04-01T17:00:55.826Z,33.18
2019-04-01T17:03:27.781Z,33.30
2019-04-01T17:06:00.471Z,33.44
2019-04-01T17:08:34.383Z,33.70
2019-04-01T17:11:06.980Z,33.72
2019-04-01T17:13:38.527Z,34.03
2019-04-01T17:16:09.954Z,34.33
2019-04-01T17:18:42.656Z,34.15
2019-04-01T17:21:14.095Z,33.99
2019-04-01T17:23:47.528Z,34.18
2019-04-01T17:26:19.233Z,34.40
2019-04-01T17:28:50.629Z,34.16
2019-04-01T17:31:24.852Z,34.41
2019-04-01T17:33:56.283Z,33.97
2019-04-01T17:36:29.345Z,34.33
2019-04-01T17:39:02.287Z,34.39
2019-04-01T17:41:35.856Z,34.53
2019-04-01T17:44:07.318Z,34.75
2019-04-01T17:46:38.761Z,35.28
2019-04-01T17:49:10.208Z,35.33
2019-04-01T17:51:41.638Z,35.92
2019-04-01T17:54:14.340Z,35.77
2019-04-01T17:56:47.165Z,35.76
2019-04-01T17:59:19.098Z,35.79
2019-04-01T18:01:50.541Z,36.06
2019-04-01T18:04:23.286Z,35.90
2019-04-01T18:06:58.254Z,36.14
2019-04-01T18:09:31.183Z,36.37
2019-04-01T18:12:02.856Z,36.21
2019-04-01T18:14:36.328Z,36.02
2019-04-01T18:17:07.856Z,36.38
2019-04-01T18:19:39.330Z,35.97
2019-04-01T18:22:12.370Z,36.59
2019-04-01T18:24:43.819Z,36.34
2019-04-01T18:27:15.456Z,36.43
2019-04-01T18:29:46.972Z,36.29
2019-04-01T18:32:18.412Z,36.22
2019-04-01T18:34:49.881Z,36.57
2019-04-01T18:37:21.491Z,36.91
2019-04-01T18:39:53.076Z,37.28
2019-04-01T18:42:26.672Z,37.30
2019-04-01T18:44:57.473Z,37.53
2019-04-01T18:47:28.941Z,38.02
2019-04-01T18:50:02.149Z,38.16
2019-04-01T18:52:34.443Z,38.55
2019-04-01T18:55:07.991Z,38.87
2019-04-01T18:57:40.581Z,39.16
2019-04-01T19:00:12.102Z,39.11
2019-04-01T19:02:43.553Z,39.04
2019-04-01T19:05:14.932Z,39.42
2019-04-01T19:07:46.457Z,39.85
2019-04-01T19:10:17.897Z,40.27
2019-04-01T19:13:05.084Z,40.06
2019-04-01T19:15:28.455Z,40.28
2019-04-01T19:18:05.662Z,40.21
2019-04-01T19:20:38.095Z,40.61
2019-04-01T19:23:16.266Z,40.84
2019-04-01T19:25:49.908Z,41.24
2019-04-01T19:28:25.061Z,41.25
2019-04-01T19:30:56.526Z,41.42
2019-04-01T19:33:27.934Z,41.61
2019-04-01T19:36:01.396Z,41.72
2019-04-01T19:38:34.354Z,42.10
2019-04-01T19:41:08.007Z,42.14
2019-04-01T19:43:39.720Z,42.74
2019-04-01T19:46:14.452Z,42.79
2019-04-01T19:48:49.232Z,43.09
2019-04-01T19:51:30.527Z,43.03
2019-04-01T19:54:04.033Z,43.26
2019-04-01T19:56:42.660Z,43.20
2019-04-01T19:59:19.485Z,43.64
2019-04-01T20:01:54.478Z,43.62
2019-04-01T20:04:32.910Z,43.83
2019-04-01T20:07:05.415Z,44.10
2019-04-01T20:09:41.815Z,44.23
2019-04-01T20:12:16.743Z,44.52
2019-04-01T20:14:48.360Z,44.27
2019-04-01T20:17:23.701Z,44.47
2019-04-01T20:20:06.818Z,44.74
2019-04-01T20:22:37.506Z,44.74
2019-04-01T20:25:09.485Z,44.80
2019-04-01T20:27:43.221Z,44.91
2019-04-01T20:30:15.816Z,44.67
2019-04-01T20:32:49.457Z,44.63
2019-04-01T20:35:24.121Z,44.52
2019-04-01T20:37:57.342Z,44.95
2019-04-01T20:40:40.311Z,45.36
2019-04-01T20:43:09.831Z,45.43
2019-04-01T20:45:41.845Z,45.74
2019-04-01T20:48:22.740Z,45.59
2019-04-01T20:50:57.557Z,46.08
2019-04-01T20:53:37.319Z,46.45
2019-04-01T20:56:14.665Z,46.51
2019-04-01T20:58:51.752Z,46.75
2019-04-01T21:01:24.033Z,46.96
2019-04-01T21:03:58.789Z,46.78
2019-04-01T21:06:31.918Z,46.55
2019-04-01T21:09:11.490Z,46.44
2019-04-01T21:11:44.704Z,46.52
2019-04-01T21:14:16.139Z,46.58
2019-04-01T21:16:49.748Z,46.67
2019-04-01T21:19:22.440Z,46.75
2019-04-01T21:21:57.067Z,46.55
2019-04-01T21:24:29.686Z,46.71
2019-04-01T21:27:02.946Z,46.83
2019-04-01T21:29:37.523Z,46.96
2019-04-01T21:32:16.151Z,47.00
2019-04-01T21:34:55.414Z,47.23
2019-04-01T21:37:29.301Z,47.55
2019-04-01T21:40:00.836Z,47.52
2019-04-01T21:42:32.212Z,47.67
2019-04-01T21:45:09.828Z,47.87
2019-04-01T21:47:41.680Z,48.17
2019-04-01T21:50:17.170Z,47.96
2019-04-01T21:52:51.255Z,48.12
2019-04-01T21:55:22.681Z,48.42
2019-04-01T21:57:55.359Z,48.48
2019-04-01T22:00:29.674Z,48.68
2019-04-01T22:03:04.540Z,48.75
2019-04-01T22:05:36.641Z,49.16
2019-04-01T22:08:10.406Z,49.40
2019-04-01T22:10:41.826Z,49.79
2019-04-01T22:13:13.290Z,49.73
2019-04-01T22:15:44.725Z,49.79
2019-04-01T22:18:19.342Z,49.83
2019-04-01T22:20:52.252Z,50.00
2019-04-01T22:23:25.861Z,50.10
2019-04-01T22:25:59.012Z,50.29
2019-04-01T22:28:30.912Z,50.31
2019-04-01T22:31:03.591Z,50.71
2019-04-01T22:33:36.251Z,50.70
2019-04-01T22:36:07.713Z,50.78
2019-04-01T22:38:40.400Z,50.88
2019-04-01T22:41:11.850Z,51.12
2019-04-01T22:43:43.375Z,51.35
2019-04-01T22:46:14.786Z,51.52
2019-04-01T22:48:47.776Z,51.67
2019-04-01T22:51:19.198Z,51.82
2019-04-01T22:53:50.645Z,51.82
2019-04-01T22:56:23.630Z,51.96
2019-04-01T22:58:56.303Z,51.99
2019-04-01T23:01:28.976Z,52.29
2019-04-01T23:04:00.446Z,52.38
2019-04-01T23:06:31.889Z,52.18
2019-04-01T23:09:07.006Z,52.34
2019-04-01T23:11:40.018Z,52.58
2019-04-01T23:14:11.466Z,52.78
2019-04-01T23:16:44.141Z,52.74
2019-04-01T23:19:16.828Z,52.97
2019-04-01T23:21:49.508Z,52.83
2019-04-01T23:24:23.108Z,52.95
2019-04-01T23:26:55.736Z,52.89
2019-04-01T23:29:29.505Z,52.85
2019-04-01T23:32:00.834Z,52.70
2019-04-01T23:34:33.289Z,52.78
2019-04-01T23:37:05.886Z,52.23
2019-04-01T23:39:38.563Z,52.43
2019-04-01T23:42:11.240Z,52.32
2019-04-01T23:44:42.775Z,52.36
2019-04-01T23:47:16.587Z,52.49
2019-04-01T23:49:49.287Z,52.19
2019-04-01T23:52:21.961Z,52.07
2019-04-01T23:54:54.642Z,51.86
2019-04-01T23:57:27.326Z,51.88
